Latest Coastal Weather Observations for Port Pirie Airport AWS***

IDS60701

Issued at 2:51 pm CDT Tuesday 23 December 2014 (issued every 10 minutes, with the page automatically refreshed every 10 minutes)

About coastal observations | Map of coastal stations | Coastal observations for SA | Marine services | Other Formats
Station Details ID: 250006 Name: PORT PIRIE AERODROME AWS Lat: -33.23 Lon: 138.00 Height: 10.0 m
Data from the previous 72 hours. | See also: Recent months for locations in South Australia
Date/Time
CDT
Temp

°C
Wind Pressure Rain
since 9am
mm
Weather Cloud Vis
km
Sea
Height
m
Swell
Dir
 
Speed
knots
Gust
knots
hPa Trend Height
m
Period
s
Dir
23/02:30pm 22.3 SW 15 20 - - 0.0 - - - - - - -
23/02:00pm 22.7 SW 15 22 - - 0.0 - - - - - - -
23/01:30pm 22.8 SW 16 21 - - 0.0 - - - - - - -
23/01:00pm 22.5 SSW 13 19 - - 0.0 - - - - - - -
23/12:30pm 22.6 SW 12 19 - - 0.0 - - - - - - -
23/12:00pm 22.3 SW 11 16 - - 0.0 - - - - - - -
23/11:30am 22.6 SW 10 16 - - 0.0 - - - - - - -
23/11:00am 21.3 SSW 12 17 - - 0.0 - - - - - - -
23/10:30am 20.6 SSW 15 22 - - 0.0 - - - - - - -
23/10:00am 20.6 SSW 15 20 - - 0.0 - - - - - - -
23/09:30am 20.6 SSW 13 18 - - 0.0 - - - - - - -
23/09:00am 20.5 SSW 11 14 - - 1.2 - - - - - - -
23/08:30am 19.9 SSW 13 17 - - 1.2 - - - - - - -
23/08:00am 19.7 SSW 13 15 - - 1.2 - - - - - - -
23/07:30am 19.8 S 12 16 - - 1.2 - - - - - - -
23/07:00am 19.9 SSW 10 13 - - 1.2 - - - - - - -
23/06:30am 19.7 S 9 11 - - 1.2 - - - - - - -
23/06:00am 19.8 S 8 11 - - 1.2 - - - - - - -
23/05:30am 19.8 S 7 11 - - 1.2 - - - - - - -
23/05:00am 19.4 SE 3 4 - - 1.2 - - - - - - -
23/04:30am 19.4 SSE 3 5 - - 1.2 - - - - - - -
23/04:00am 19.5 S 4 6 - - 1.2 - - - - - - -
23/03:30am 19.3 S 3 5 - - 1.2 - - - - - - -
23/03:00am 18.9 SE 3 4 - - 1.2 - - - - - - -
23/02:30am 18.6 ESE 2 3 - - 1.2 - - - - - - -
23/02:00am 18.1 ESE 3 4 - - 1.2 - - - - - - -
23/01:30am 18.5 ESE 3 4 - - 1.2 - - - - - - -
23/01:00am 19.2 SW 4 5 - - 1.2 - - - - - - -
23/12:30am 19.2 SSW 6 8 - - 1.2 - - - - - - -
23/12:00am 18.7 SW 7 9 - - 1.2 - - - - - - -
 
Date/Time
CDT
Temp

°C
Wind Pressure Rain
since 9am
mm
Weather Cloud Vis
km
Sea
Height
m
Swell
Dir
 
Speed
knots
Gust
knots
hPa Trend Height
m
Period
s
Dir
22/11:30pm 18.8 SSW 6 7 - - 1.2 - - - - - - -
22/11:00pm 18.9 S 5 7 - - 1.2 - - - - - - -
22/10:30pm 19.3 SSW 3 5 - - 1.2 - - - - - - -
22/10:00pm 19.7 SSE 3 5 - - 1.2 - - - - - - -
22/09:30pm 20.5 SSE 6 7 - - 1.2 - - - - - - -
22/09:00pm 21.0 SE 7 9 - - 1.2 - - - - - - -
22/08:30pm 21.3 SE 9 13 - - 1.2 - - - - - - -
22/08:00pm 21.8 SE 8 11 - - 1.2 - - - - - - -
22/07:30pm 22.7 SSE 8 11 - - 1.2 - - - - - - -
22/07:00pm 23.0 S 10 13 - - 1.2 - - - - - - -
22/06:30pm 22.7 S 12 15 - - 1.2 - - - - - - -
22/06:00pm 22.2 S 9 11 - - 1.2 Recent precip. - - - - - -
22/05:30pm 26.2 SSW 11 17 - - 0.2 - - - - - - -
22/05:00pm 27.0 S 9 12 - - 0.2 - - - - - - -
22/04:30pm 26.9 SSW 7 11 - - 0.0 - - - - - - -
22/04:00pm 24.5 SW 8 10 - - 0.0 - - - - - - -
22/03:30pm 24.8 WSW 7 11 - - 0.0 - - - - - - -
22/03:00pm 26.3 WSW 4 9 - - 0.0 - - - - - - -
22/02:30pm 25.2 SSW 6 8 - - 0.0 - - - - - - -
22/02:00pm 24.7 SSW 4 7 - - 0.0 - - - - - - -
22/01:30pm 25.8 WSW 5 10 - - 0.0 - - - - - - -
22/01:00pm 24.2 SSE 6 9 - - 0.0 - - - - - - -
22/12:30pm 23.8 SSE 12 15 - - 0.0 - - - - - - -
22/12:00pm 22.8 SE 7 11 - - 0.0 - - - - - - -
22/11:30am 22.5 NE 5 9 - - 0.0 - - - - - - -
22/11:00am 22.7 WSW 3 6 - - 0.0 - - - - - - -
22/10:30am 23.3 WNW 4 9 - - 0.0 - - - - - - -
22/10:00am 23.0 WNW 5 10 - - 0.0 - - - - - - -
22/09:30am 23.2 WSW 3 7 - - 0.0 - - - - - - -
22/09:00am 23.2 SW 1 2 - - 0.0 - - - - - - -
22/08:30am 23.0 ENE 4 7 - - 0.0 - - - - - - -
22/08:00am 22.8 S 5 9 - - 0.0 - - - - - - -
22/07:30am 22.8 SW 9 13 - - 0.0 - - - - - - -
22/07:00am 22.0 SSW 3 5 - - 0.0 - - - - - - -
22/06:30am 21.6 SSW 4 7 - - 0.0 - - - - - - -
22/06:00am 21.4 S 4 6 - - 0.0 - - - - - - -
22/05:30am 21.1 SSE 3 4 - - 0.0 - - - - - - -
22/05:00am 21.6 SE 3 5 - - 0.0 - - - - - - -
22/04:30am 22.1 SE 5 8 - - 0.0 - - - - - - -
22/04:00am 22.6 SE 7 10 - - 0.0 - - - - - - -
22/03:30am 23.1 SE 11 15 - - 0.0 - - - - - - -
22/03:00am 24.5 SSE 8 12 - - 0.0 - - - - - - -
22/02:30am 24.9 SE 8 10 - - 0.0 - - - - - - -
22/02:00am 25.0 SE 6 8 - - 0.0 - - - - - - -
22/01:30am 24.8 SE 3 6 - - 0.0 - - - - - - -
22/01:00am 24.3 ESE 6 8 - - 0.0 - - - - - - -
22/12:30am 23.7 ENE 3 5 - - 0.0 - - - - - - -
22/12:00am 23.9 NE 5 7 - - 0.0 - - - - - - -
 
Date/Time
CDT
Temp

°C
Wind Pressure Rain
since 9am
mm
Weather Cloud Vis
km
Sea
Height
m
Swell
Dir
 
Speed
knots
Gust
knots
hPa Trend Height
m
Period
s
Dir
21/11:30pm 23.4 ENE 3 4 - - 0.0 - - - - - - -
21/11:00pm 23.9 WNW 3 9 - - 0.0 - - - - - - -
21/10:30pm 24.3 SW 2 4 - - 0.0 - - - - - - -
21/10:00pm 24.4 WSW 4 8 - - 0.0 - - - - - - -
21/09:30pm 24.8 SW 9 14 - - 0.0 - - - - - - -
21/09:00pm 25.4 WSW 10 17 - - 0.0 - - - - - - -
21/08:30pm 27.2 SW 13 21 - - 0.0 - - - - - - -
21/08:22pm 27.5 SW 13 20 - - 0.0 - - - - - - -
21/08:00pm 32.5 WNW 3 6 - - 0.0 - - - - - - -
21/07:30pm 33.4 SE 2 5 - - 0.0 - - - - - - -
21/07:00pm 34.9 N 1 2 - - 0.0 - - - - - - -
21/06:30pm 35.7 NW 3 6 - - 0.0 - - - - - - -
21/06:00pm 35.9 WNW 2 5 - - 0.0 - - - - - - -
21/05:30pm 35.8 N 4 7 - - 0.0 - - - - - - -
21/05:00pm 36.2 NNE 3 6 - - 0.0 - - - - - - -
21/04:30pm 36.2 NNE 2 5 - - 0.0 - - - - - - -
21/04:00pm 36.1 NW 4 8 - - 0.0 - - - - - - -
21/03:30pm 36.6 NW 6 12 - - 0.0 - - - - - - -
21/03:00pm 37.7 NW 7 16 - - 0.0 - - - - - - -
21/02:30pm 37.2 NNW 8 14 - - 0.0 - - - - - - -
21/02:00pm 37.5 N 7 13 - - 0.0 - - - - - - -
21/01:30pm 36.6 N 9 16 - - 0.0 - - - - - - -
21/01:00pm 36.0 N 11 18 - - 0.0 - - - - - - -
21/12:30pm 35.0 NNW 11 18 - - 0.0 - - - - - - -
21/12:00pm 33.9 NNW 12 20 - - 0.0 - - - - - - -
21/11:30am 34.7 N 10 20 - - 0.0 - - - - - - -
21/11:00am 32.2 NNW 7 11 - - 0.0 - - - - - - -
21/10:30am 32.0 N 6 12 - - 0.0 - - - - - - -
21/10:00am 32.2 NNE 6 10 - - 0.0 - - - - - - -
21/09:30am 31.3 N 5 10 - - 0.0 - - - - - - -
21/09:00am 29.1 N 6 9 - - 0.0 - - - - - - -
21/08:30am 27.7 NNW 5 7 - - 0.0 - - - - - - -
21/08:00am 26.3 N 5 10 - - 0.0 - - - - - - -
21/07:30am 24.3 NW 5 8 - - 0.0 - - - - - - -
21/07:00am 22.7 NW 3 5 - - 0.0 - - - - - - -
21/06:30am 19.7 SW 1 2 - - 0.0 - - - - - - -
21/06:00am 22.4 NNE 5 6 - - 0.0 - - - - - - -
21/05:30am 25.0 NNE 5 6 - - 0.0 - - - - - - -
21/05:00am 25.5 N 6 9 - - 0.0 - - - - - - -
21/04:30am 24.6 NNE 6 9 - - 0.0 - - - - - - -
21/04:25am 24.2 N 5 8 - - 0.0 - - - - - - -
21/04:00am 19.0 NW 1 2 - - 0.0 - - - - - - -
21/03:30am 18.8 SW 2 3 - - 0.0 - - - - - - -
21/03:00am 19.5 SSW 3 4 - - 0.0 - - - - - - -
21/02:30am 19.5 SSE 4 6 - - 0.0 - - - - - - -
21/02:00am 20.1 SSE 6 9 - - 0.0 - - - - - - -
21/01:30am 20.6 SSE 6 8 - - 0.0 - - - - - - -
21/01:00am 20.9 SSE 8 12 - - 0.0 - - - - - - -
21/12:30am 21.0 SSE 9 11 - - 0.0 - - - - - - -
21/12:00am 22.1 SE 9 12 - - 0.0 - - - - - - -
 
Date/Time
CDT
Temp

°C
Wind Pressure Rain
since 9am
mm
Weather Cloud Vis
km
Sea
Height
m
Swell
Dir
 
Speed
knots
Gust
knots
hPa Trend Height
m
Period
s
Dir
20/11:30pm 22.0 SE 8 11 - - 0.0 - - - - - - -
20/11:00pm 22.7 SE 9 12 - - 0.0 - - - - - - -
20/10:30pm 23.6 SE 10 14 - - 0.0 - - - - - - -
20/10:00pm 24.5 SE 8 11 - - 0.0 - - - - - - -
20/09:30pm 23.3 SE 5 6 - - 0.0 - - - - - - -
20/09:00pm 25.3 S 5 5 - - 0.0 - - - - - - -
20/08:30pm 27.1 SSE 5 5 - - 0.0 - - - - - - -
20/08:00pm 30.4 SSE 5 7 - - 0.0 - - - - - - -
20/07:30pm 31.6 SSE 4 6 - - 0.0 - - - - - - -
20/07:00pm 31.9 S 4 6 - - 0.0 - - - - - - -
20/06:30pm 31.4 SSE 3 7 - - 0.0 - - - - - - -
20/06:00pm 31.9 S 5 9 - - 0.0 - - - - - - -
20/05:30pm 32.2 SW 4 8 - - 0.0 - - - - - - -
20/05:00pm 31.4 SSW 6 10 - - 0.0 - - - - - - -
20/04:30pm 31.7 W 4 9 - - 0.0 - - - - - - -
20/04:00pm 31.2 SW 7 12 - - 0.0 - - - - - - -
20/03:30pm 31.4 WSW 7 13 - - 0.0 - - - - - - -
20/03:00pm 31.1 W 5 12 - - 0.0 - - - - - - -

Other Formats:

Comma delimited format used in spreadsheet applications
http://www.bom.gov.au/fwo/IDS60701/IDS60701.99001.axf

JavaScript Object Notation format (JSON) in row-major order
http://www.bom.gov.au/fwo/IDS60701/IDS60701.99001.json